sensor_id;sensor_type;location;lat;lon;timestamp;pressure;altitude;pressure_sealevel;temperature;humidity
54022;BME280;39936;51.058;17.220;2023-03-26T00:01:48;100582.37;;;6.27;92.43
54022;BME280;39936;51.058;17.220;2023-03-26T00:05:26;100585.53;;;6.37;91.89
54022;BME280;39936;51.058;17.220;2023-03-26T00:09:25;100554.44;;;6.22;91.59
54022;BME280;39936;51.058;17.220;2023-03-26T00:12:46;100541.63;;;6.24;91.37
54022;BME280;39936;51.058;17.220;2023-03-26T00:16:24;100577.21;;;6.52;90.99
54022;BME280;39936;51.058;17.220;2023-03-26T00:19:43;100571.58;;;6.59;90.93
54022;BME280;39936;51.058;17.220;2023-03-26T00:23:32;100568.96;;;6.62;90.61
54022;BME280;39936;51.058;17.220;2023-03-26T00:26:51;100566.99;;;6.63;90.50
54022;BME280;39936;51.058;17.220;2023-03-26T00:30:40;100570.88;;;6.61;90.56
54022;BME280;39936;51.058;17.220;2023-03-26T00:34:29;100567.23;;;6.56;90.88
54022;BME280;39936;51.058;17.220;2023-03-26T00:37:51;100527.99;;;6.32;91.18
54022;BME280;39936;51.058;17.220;2023-03-26T00:45:22;100559.11;;;6.49;92.19
54022;BME280;39936;51.058;17.220;2023-03-26T00:49:13;100555.18;;;6.48;92.24
54022;BME280;39936;51.058;17.220;2023-03-26T00:56:41;100554.89;;;6.40;93.91
54022;BME280;39936;51.058;17.220;2023-03-26T01:00:12;100552.24;;;6.42;94.50
54022;BME280;39936;51.058;17.220;2023-03-26T01:03:57;100551.26;;;6.42;95.19
54022;BME280;39936;51.058;17.220;2023-03-26T01:07:41;100544.36;;;6.43;95.59
54022;BME280;39936;51.058;17.220;2023-03-26T01:11:48;100545.55;;;6.38;95.61
54022;BME280;39936;51.058;17.220;2023-03-26T01:15:16;100549.08;;;6.36;95.56
54022;BME280;39936;51.058;17.220;2023-03-26T01:23:07;100547.53;;;6.27;96.99
54022;BME280;39936;51.058;17.220;2023-03-26T01:34:43;100550.22;;;6.20;95.46
54022;BME280;39936;51.058;17.220;2023-03-26T01:42:12;100553.59;;;6.14;96.24
54022;BME280;39936;51.058;17.220;2023-03-26T01:45:56;100554.80;;;6.13;97.04
54022;BME280;39936;51.058;17.220;2023-03-26T01:49:17;100552.23;;;6.15;96.64
54022;BME280;39936;51.058;17.220;2023-03-26T01:52:53;100556.31;;;6.14;96.43
54022;BME280;39936;51.058;17.220;2023-03-26T02:00:45;100552.30;;;6.12;96.36
54022;BME280;39936;51.058;17.220;2023-03-26T02:08:50;100549.14;;;6.20;96.45
54022;BME280;39936;51.058;17.220;2023-03-26T02:12:40;100541.05;;;6.18;96.72
54022;BME280;39936;51.058;17.220;2023-03-26T02:16:31;100540.20;;;6.19;96.80
54022;BME280;39936;51.058;17.220;2023-03-26T02:20:19;100535.91;;;6.20;96.83
54022;BME280;39936;51.058;17.220;2023-03-26T02:24:00;100539.75;;;6.28;97.04
54022;BME280;39936;51.058;17.220;2023-03-26T02:28:01;100519.91;;;6.27;96.65
54022;BME280;39936;51.058;17.220;2023-03-26T02:35:46;100536.59;;;6.46;95.76
54022;BME280;39936;51.058;17.220;2023-03-26T02:39:35;100535.34;;;6.55;95.02
54022;BME280;39936;51.058;17.220;2023-03-26T02:43:23;100532.37;;;6.70;93.70
54022;BME280;39936;51.058;17.220;2023-03-26T02:47:01;100532.33;;;6.80;92.33
54022;BME280;39936;51.058;17.220;2023-03-26T02:55:17;100499.40;;;6.79;90.76
54022;BME280;39936;51.058;17.220;2023-03-26T02:59:03;100527.56;;;7.05;90.33
54022;BME280;39936;51.058;17.220;2023-03-26T03:02:20;100519.20;;;7.07;90.18
54022;BME280;39936;51.058;17.220;2023-03-26T03:05:58;100520.70;;;7.12;89.75
54022;BME280;39936;51.058;17.220;2023-03-26T03:09:36;100528.99;;;7.15;90.05
54022;BME280;39936;51.058;17.220;2023-03-26T03:12:55;100517.59;;;7.17;89.95
54022;BME280;39936;51.058;17.220;2023-03-26T03:16:44;100497.92;;;6.98;90.24
54022;BME280;39936;51.058;17.220;2023-03-26T03:20:00;100494.46;;;6.96;91.82
54022;BME280;39936;51.058;17.220;2023-03-26T03:23:23;100521.69;;;7.02;92.93
54022;BME280;39936;51.058;17.220;2023-03-26T03:27:13;100526.84;;;6.99;93.35
54022;BME280;39936;51.058;17.220;2023-03-26T03:34:43;100524.15;;;6.91;93.79
54022;BME280;39936;51.058;17.220;2023-03-26T03:38:05;100519.99;;;6.98;92.77
54022;BME280;39936;51.058;17.220;2023-03-26T03:41:53;100528.98;;;7.05;92.62
54022;BME280;39936;51.058;17.220;2023-03-26T03:45:15;100503.05;;;6.91;92.10
54022;BME280;39936;51.058;17.220;2023-03-26T03:48:53;100526.80;;;7.08;92.29
54022;BME280;39936;51.058;17.220;2023-03-26T03:52:43;100527.55;;;7.06;91.91
54022;BME280;39936;51.058;17.220;2023-03-26T03:56:49;100526.34;;;7.04;90.22
54022;BME280;39936;51.058;17.220;2023-03-26T04:00:39;100541.56;;;7.17;89.24
54022;BME280;39936;51.058;17.220;2023-03-26T04:04:20;100542.89;;;7.18;88.69
54022;BME280;39936;51.058;17.220;2023-03-26T04:07:43;100542.53;;;7.23;87.52
54022;BME280;39936;51.058;17.220;2023-03-26T04:11:21;100545.13;;;7.26;87.05
54022;BME280;39936;51.058;17.220;2023-03-26T04:14:51;100546.16;;;7.26;87.40
54022;BME280;39936;51.058;17.220;2023-03-26T04:18:31;100548.97;;;7.29;87.22
54022;BME280;39936;51.058;17.220;2023-03-26T04:21:48;100546.41;;;7.26;87.23
54022;BME280;39936;51.058;17.220;2023-03-26T04:25:19;100546.41;;;7.23;87.54
54022;BME280;39936;51.058;17.220;2023-03-26T04:28:46;100543.75;;;7.19;86.71
54022;BME280;39936;51.058;17.220;2023-03-26T04:32:23;100550.55;;;7.18;86.30
54022;BME280;39936;51.058;17.220;2023-03-26T04:36:47;100547.95;;;7.24;85.26
54022;BME280;39936;51.058;17.220;2023-03-26T04:48:07;100548.48;;;7.45;82.28
54022;BME280;39936;51.058;17.220;2023-03-26T04:52:11;100550.05;;;7.45;81.95
54022;BME280;39936;51.058;17.220;2023-03-26T04:56:08;100547.31;;;7.44;81.97
54022;BME280;39936;51.058;17.220;2023-03-26T04:59:45;100553.05;;;7.42;82.80
54022;BME280;39936;51.058;17.220;2023-03-26T05:03:49;100554.88;;;7.45;82.46
54022;BME280;39936;51.058;17.220;2023-03-26T05:07:07;100550.09;;;7.39;82.93
54022;BME280;39936;51.058;17.220;2023-03-26T05:11:28;100560.10;;;7.34;83.54
54022;BME280;39936;51.058;17.220;2023-03-26T05:18:34;100530.38;;;7.08;84.53
54022;BME280;39936;51.058;17.220;2023-03-26T05:22:13;100568.85;;;7.22;83.99
54022;BME280;39936;51.058;17.220;2023-03-26T05:25:53;100558.66;;;7.20;84.61
54022;BME280;39936;51.058;17.220;2023-03-26T05:29:33;100566.33;;;7.18;84.89
54022;BME280;39936;51.058;17.220;2023-03-26T05:36:50;100544.38;;;7.07;85.33
54022;BME280;39936;51.058;17.220;2023-03-26T05:40:07;100563.07;;;7.21;85.54
54022;BME280;39936;51.058;17.220;2023-03-26T05:43:56;100531.82;;;6.98;85.54
54022;BME280;39936;51.058;17.220;2023-03-26T05:47:21;100561.38;;;7.18;86.05
54022;BME280;39936;51.058;17.220;2023-03-26T05:50:57;100563.46;;;7.21;86.18
54022;BME280;39936;51.058;17.220;2023-03-26T05:54:20;100562.50;;;7.23;86.50
54022;BME280;39936;51.058;17.220;2023-03-26T05:57:37;100562.05;;;7.24;86.90
54022;BME280;39936;51.058;17.220;2023-03-26T06:01:15;100567.47;;;7.26;87.35
54022;BME280;39936;51.058;17.220;2023-03-26T06:05:09;100566.11;;;7.32;87.72
54022;BME280;39936;51.058;17.220;2023-03-26T06:08:46;100572.22;;;7.41;87.87
54022;BME280;39936;51.058;17.220;2023-03-26T06:12:15;100573.95;;;7.47;88.03
54022;BME280;39936;51.058;17.220;2023-03-26T06:16:17;100573.13;;;7.49;88.13
54022;BME280;39936;51.058;17.220;2023-03-26T06:19:53;100574.52;;;7.59;87.85
54022;BME280;39936;51.058;17.220;2023-03-26T06:23:47;100577.66;;;7.73;88.36
54022;BME280;39936;51.058;17.220;2023-03-26T06:27:48;100583.59;;;7.80;87.65
54022;BME280;39936;51.058;17.220;2023-03-26T06:31:30;100577.77;;;7.87;87.49
54022;BME280;39936;51.058;17.220;2023-03-26T06:38:56;100575.30;;;8.02;86.37
54022;BME280;39936;51.058;17.220;2023-03-26T06:43:00;100586.52;;;7.97;85.65
54022;BME280;39936;51.058;17.220;2023-03-26T06:46:31;100549.09;;;7.90;85.31
54022;BME280;39936;51.058;17.220;2023-03-26T06:50:09;100578.82;;;8.06;84.15
54022;BME280;39936;51.058;17.220;2023-03-26T06:53:26;100580.28;;;8.08;84.82
54022;BME280;39936;51.058;17.220;2023-03-26T06:57:01;100579.55;;;8.18;85.73
54022;BME280;39936;51.058;17.220;2023-03-26T07:00:31;100577.51;;;8.25;84.76
54022;BME280;39936;51.058;17.220;2023-03-26T07:04:13;100572.78;;;8.36;85.07
54022;BME280;39936;51.058;17.220;2023-03-26T07:07:33;100568.90;;;8.50;84.61
54022;BME280;39936;51.058;17.220;2023-03-26T07:11:49;100568.16;;;8.62;83.69
54022;BME280;39936;51.058;17.220;2023-03-26T07:15:05;100573.34;;;8.63;83.08
54022;BME280;39936;51.058;17.220;2023-03-26T07:18:51;100570.26;;;8.55;82.97
54022;BME280;39936;51.058;17.220;2023-03-26T07:22:32;100574.89;;;8.56;82.36
54022;BME280;39936;51.058;17.220;2023-03-26T07:38:12;100582.34;;;8.51;79.95
54022;BME280;39936;51.058;17.220;2023-03-26T07:45:24;100579.67;;;8.16;78.90
54022;BME280;39936;51.058;17.220;2023-03-26T07:49:12;100591.23;;;7.91;85.64
54022;BME280;39936;51.058;17.220;2023-03-26T07:52:52;100595.58;;;7.70;91.00
54022;BME280;39936;51.058;17.220;2023-03-26T07:56:31;100581.14;;;7.62;89.63
54022;BME280;39936;51.058;17.220;2023-03-26T08:00:15;100546.13;;;7.46;92.45
54022;BME280;39936;51.058;17.220;2023-03-26T08:19:45;100560.79;;;8.65;89.28
54022;BME280;39936;51.058;17.220;2023-03-26T08:23:16;100554.94;;;9.00;88.54
54022;BME280;39936;51.058;17.220;2023-03-26T08:30:20;100543.12;;;9.09;81.71
54022;BME280;39936;51.058;17.220;2023-03-26T08:34:11;100539.96;;;9.06;79.28
54022;BME280;39936;51.058;17.220;2023-03-26T08:38:20;100539.48;;;8.95;78.26
54022;BME280;39936;51.058;17.220;2023-03-26T08:56:43;100531.17;;;8.78;81.42
54022;BME280;39936;51.058;17.220;2023-03-26T09:03:38;100521.74;;;9.47;77.12
54022;BME280;39936;51.058;17.220;2023-03-26T09:19:33;100507.73;;;10.13;71.93
54022;BME280;39936;51.058;17.220;2023-03-26T09:42:48;100495.36;;;10.28;70.97
54022;BME280;39936;51.058;17.220;2023-03-26T09:54:04;100527.66;;;9.98;72.99
54022;BME280;39936;51.058;17.220;2023-03-26T10:32:37;100527.04;;;8.94;84.96
54022;BME280;39936;51.058;17.220;2023-03-26T10:36:33;100516.05;;;8.78;80.16
54022;BME280;39936;51.058;17.220;2023-03-26T10:55:38;100505.88;;;8.81;73.42
54022;BME280;39936;51.058;17.220;2023-03-26T10:58:56;100503.91;;;9.11;73.37
54022;BME280;39936;51.058;17.220;2023-03-26T11:02:57;100495.11;;;9.37;70.70
54022;BME280;39936;51.058;17.220;2023-03-26T11:10:07;100485.17;;;9.51;68.07
54022;BME280;39936;51.058;17.220;2023-03-26T11:14:03;100481.18;;;9.58;66.41
54022;BME280;39936;51.058;17.220;2023-03-26T11:32:54;100465.41;;;10.66;65.75
54022;BME280;39936;51.058;17.220;2023-03-26T11:36:22;100454.18;;;10.96;64.73
54022;BME280;39936;51.058;17.220;2023-03-26T11:40:12;100413.66;;;10.78;61.66
54022;BME280;39936;51.058;17.220;2023-03-26T11:43:34;100442.36;;;11.24;60.63
54022;BME280;39936;51.058;17.220;2023-03-26T11:46:57;100438.66;;;11.21;60.95
54022;BME280;39936;51.058;17.220;2023-03-26T11:50:25;100428.77;;;11.38;59.08
54022;BME280;39936;51.058;17.220;2023-03-26T11:54:02;100427.39;;;11.49;57.10
54022;BME280;39936;51.058;17.220;2023-03-26T11:57:25;100425.20;;;11.42;59.54
54022;BME280;39936;51.058;17.220;2023-03-26T12:00:44;100419.88;;;11.33;58.32
54022;BME280;39936;51.058;17.220;2023-03-26T12:05:22;100419.23;;;11.19;56.76
54022;BME280;39936;51.058;17.220;2023-03-26T12:09:30;100426.60;;;11.06;59.12
54022;BME280;39936;51.058;17.220;2023-03-26T12:13:37;100419.63;;;11.21;60.17
54022;BME280;39936;51.058;17.220;2023-03-26T12:17:36;100408.33;;;11.29;60.72
54022;BME280;39936;51.058;17.220;2023-03-26T12:21:19;100405.12;;;11.32;60.48
54022;BME280;39936;51.058;17.220;2023-03-26T12:24:39;100406.55;;;11.15;57.91
54022;BME280;39936;51.058;17.220;2023-03-26T12:28:49;100405.94;;;11.14;58.91
54022;BME280;39936;51.058;17.220;2023-03-26T12:32:13;100410.37;;;11.14;58.15
54022;BME280;39936;51.058;17.220;2023-03-26T12:35:56;100403.05;;;11.14;58.92
54022;BME280;39936;51.058;17.220;2023-03-26T12:40:07;100377.35;;;10.99;64.46
54022;BME280;39936;51.058;17.220;2023-03-26T12:43:49;100410.64;;;10.92;68.31
54022;BME280;39936;51.058;17.220;2023-03-26T12:47:20;100407.56;;;10.69;70.39
54022;BME280;39936;51.058;17.220;2023-03-26T12:59:29;100393.84;;;10.51;69.36
54022;BME280;39936;51.058;17.220;2023-03-26T13:10:39;100378.34;;;10.78;68.88
54022;BME280;39936;51.058;17.220;2023-03-26T13:19:13;100371.51;;;10.74;67.49
54022;BME280;39936;51.058;17.220;2023-03-26T13:35:28;100361.70;;;11.20;67.05
54022;BME280;39936;51.058;17.220;2023-03-26T13:43:21;100346.40;;;11.82;63.82
54022;BME280;39936;51.058;17.220;2023-03-26T13:46:47;100345.47;;;11.62;63.88
54022;BME280;39936;51.058;17.220;2023-03-26T13:50:28;100341.09;;;11.53;65.47
54022;BME280;39936;51.058;17.220;2023-03-26T13:54:24;100353.94;;;11.83;65.72
54022;BME280;39936;51.058;17.220;2023-03-26T13:58:37;100357.23;;;11.84;62.94
54022;BME280;39936;51.058;17.220;2023-03-26T14:02:02;100347.04;;;11.95;64.97
54022;BME280;39936;51.058;17.220;2023-03-26T14:05:45;100353.03;;;12.10;64.57
54022;BME280;39936;51.058;17.220;2023-03-26T14:09:35;100350.05;;;12.18;61.50
54022;BME280;39936;51.058;17.220;2023-03-26T14:17:21;100336.03;;;12.35;62.35
54022;BME280;39936;51.058;17.220;2023-03-26T14:21:28;100335.02;;;12.39;62.75
54022;BME280;39936;51.058;17.220;2023-03-26T14:25:19;100331.77;;;12.40;62.78
54022;BME280;39936;51.058;17.220;2023-03-26T14:32:42;100323.87;;;12.15;63.46
54022;BME280;39936;51.058;17.220;2023-03-26T14:52:50;100303.10;;;12.31;62.50
54022;BME280;39936;51.058;17.220;2023-03-26T15:00:14;100288.18;;;12.04;62.24
54022;BME280;39936;51.058;17.220;2023-03-26T15:07:37;100326.66;;;11.64;67.47
54022;BME280;39936;51.058;17.220;2023-03-26T15:46:25;100285.83;;;9.13;92.08
54022;BME280;39936;51.058;17.220;2023-03-26T16:13:34;100364.40;;;7.70;94.73
54022;BME280;39936;51.058;17.220;2023-03-26T16:16:57;100348.06;;;7.62;94.41
54022;BME280;39936;51.058;17.220;2023-03-26T16:21:00;100307.44;;;7.49;93.95
54022;BME280;39936;51.058;17.220;2023-03-26T16:25:11;100310.19;;;7.36;97.71
54022;BME280;39936;51.058;17.220;2023-03-26T16:29:25;100304.86;;;7.16;95.29
54022;BME280;39936;51.058;17.220;2023-03-26T16:33:10;100310.12;;;7.26;98.40
54022;BME280;39936;51.058;17.220;2023-03-26T16:36:44;100315.65;;;7.36;100.00
54022;BME280;39936;51.058;17.220;2023-03-26T16:52:00;100305.91;;;7.26;99.88
54022;BME280;39936;51.058;17.220;2023-03-26T16:55:58;100302.07;;;7.41;99.11
54022;BME280;39936;51.058;17.220;2023-03-26T17:12:07;100289.13;;;7.59;97.56
54022;BME280;39936;51.058;17.220;2023-03-26T17:15:40;100286.34;;;7.62;97.16
54022;BME280;39936;51.058;17.220;2023-03-26T17:27:20;100286.70;;;7.43;96.66
54022;BME280;39936;51.058;17.220;2023-03-26T17:42:33;100294.23;;;7.18;98.63
54022;BME280;39936;51.058;17.220;2023-03-26T17:46:38;100276.05;;;6.94;99.87
54022;BME280;39936;51.058;17.220;2023-03-26T17:50:37;100271.01;;;6.83;100.00
54022;BME280;39936;51.058;17.220;2023-03-26T17:54:46;100293.16;;;6.96;100.00
54022;BME280;39936;51.058;17.220;2023-03-26T17:59:03;100290.73;;;6.90;100.00
54022;BME280;39936;51.058;17.220;2023-03-26T18:03:00;100310.03;;;6.87;100.00
54022;BME280;39936;51.058;17.220;2023-03-26T18:22:57;100310.70;;;6.66;100.00
54022;BME280;39936;51.058;17.220;2023-03-26T18:30:17;100313.06;;;6.79;100.00
54022;BME280;39936;51.058;17.220;2023-03-26T18:33:42;100306.98;;;6.81;100.00
54022;BME280;39936;51.058;17.220;2023-03-26T18:37:11;100308.31;;;6.84;100.00
54022;BME280;39936;51.058;17.220;2023-03-26T18:41:12;100305.92;;;6.80;100.00
54022;BME280;39936;51.058;17.220;2023-03-26T18:44:50;100269.61;;;6.63;100.00
54022;BME280;39936;51.058;17.220;2023-03-26T18:48:21;100302.39;;;6.82;100.00
54022;BME280;39936;51.058;17.220;2023-03-26T18:51:44;100297.88;;;6.83;100.00
54022;BME280;39936;51.058;17.220;2023-03-26T18:55:26;100298.47;;;6.85;100.00
54022;BME280;39936;51.058;17.220;2023-03-26T18:58:50;100267.50;;;6.67;100.00
54022;BME280;39936;51.058;17.220;2023-03-26T19:02:12;100285.75;;;6.83;100.00
54022;BME280;39936;51.058;17.220;2023-03-26T19:05:55;100280.26;;;6.87;100.00
54022;BME280;39936;51.058;17.220;2023-03-26T19:09:13;100283.57;;;6.88;100.00
54022;BME280;39936;51.058;17.220;2023-03-26T19:16:24;100277.15;;;6.80;100.00
54022;BME280;39936;51.058;17.220;2023-03-26T19:20:00;100274.59;;;6.64;100.00
54022;BME280;39936;51.058;17.220;2023-03-26T19:23:25;100275.14;;;6.61;100.00
54022;BME280;39936;51.058;17.220;2023-03-26T19:27:19;100268.35;;;6.61;100.00
54022;BME280;39936;51.058;17.220;2023-03-26T19:31:06;100262.59;;;6.58;100.00
54022;BME280;39936;51.058;17.220;2023-03-26T19:34:59;100244.79;;;6.50;100.00
54022;BME280;39936;51.058;17.220;2023-03-26T19:39:10;100248.71;;;6.56;100.00
54022;BME280;39936;51.058;17.220;2023-03-26T19:42:38;100241.41;;;6.57;100.00
54022;BME280;39936;51.058;17.220;2023-03-26T19:46:34;100242.34;;;6.66;100.00
54022;BME280;39936;51.058;17.220;2023-03-26T19:50:26;100240.09;;;6.67;100.00
54022;BME280;39936;51.058;17.220;2023-03-26T19:58:43;100239.44;;;6.66;100.00
54022;BME280;39936;51.058;17.220;2023-03-26T20:02:09;100230.71;;;6.70;100.00
54022;BME280;39936;51.058;17.220;2023-03-26T20:05:44;100236.66;;;6.70;100.00
54022;BME280;39936;51.058;17.220;2023-03-26T20:09:21;100213.75;;;6.60;100.00
54022;BME280;39936;51.058;17.220;2023-03-26T20:13:43;100236.91;;;6.82;100.00
54022;BME280;39936;51.058;17.220;2023-03-26T20:17:34;100239.65;;;6.79;100.00
54022;BME280;39936;51.058;17.220;2023-03-26T20:21:13;100239.42;;;6.79;100.00
54022;BME280;39936;51.058;17.220;2023-03-26T20:24:55;100233.56;;;6.79;100.00
54022;BME280;39936;51.058;17.220;2023-03-26T20:29:11;100227.21;;;6.77;100.00
54022;BME280;39936;51.058;17.220;2023-03-26T20:32:30;100217.77;;;6.78;100.00
54022;BME280;39936;51.058;17.220;2023-03-26T20:35:54;100217.27;;;6.82;100.00
54022;BME280;39936;51.058;17.220;2023-03-26T20:39:17;100213.78;;;6.80;100.00
54022;BME280;39936;51.058;17.220;2023-03-26T20:43:00;100216.55;;;6.81;100.00
54022;BME280;39936;51.058;17.220;2023-03-26T20:46:19;100214.21;;;6.84;100.00
54022;BME280;39936;51.058;17.220;2023-03-26T20:50:02;100194.67;;;6.79;100.00
54022;BME280;39936;51.058;17.220;2023-03-26T20:54:04;100203.96;;;6.94;100.00
54022;BME280;39936;51.058;17.220;2023-03-26T20:57:25;100201.28;;;7.00;100.00
54022;BME280;39936;51.058;17.220;2023-03-26T21:01:12;100187.46;;;6.90;100.00
54022;BME280;39936;51.058;17.220;2023-03-26T21:04:33;100196.95;;;7.00;100.00
54022;BME280;39936;51.058;17.220;2023-03-26T21:08:30;100195.09;;;7.04;100.00
54022;BME280;39936;51.058;17.220;2023-03-26T21:16:44;100177.26;;;7.13;100.00
54022;BME280;39936;51.058;17.220;2023-03-26T21:20:00;100155.00;;;6.97;100.00
54022;BME280;39936;51.058;17.220;2023-03-26T21:24:08;100187.30;;;7.19;100.00
54022;BME280;39936;51.058;17.220;2023-03-26T21:32:07;100192.93;;;7.12;100.00
54022;BME280;39936;51.058;17.220;2023-03-26T21:35:28;100199.77;;;7.08;100.00
54022;BME280;39936;51.058;17.220;2023-03-26T21:39:17;100198.91;;;6.97;100.00
54022;BME280;39936;51.058;17.220;2023-03-26T21:43:31;100190.75;;;6.92;100.00
54022;BME280;39936;51.058;17.220;2023-03-26T21:47:11;100182.41;;;6.85;100.00
54022;BME280;39936;51.058;17.220;2023-03-26T21:51:03;100189.57;;;6.87;100.00
54022;BME280;39936;51.058;17.220;2023-03-26T21:54:25;100183.28;;;6.86;100.00
54022;BME280;39936;51.058;17.220;2023-03-26T21:58:25;100178.66;;;6.84;100.00
54022;BME280;39936;51.058;17.220;2023-03-26T22:02:22;100178.49;;;6.82;100.00
54022;BME280;39936;51.058;17.220;2023-03-26T22:08:54;100177.62;;;6.78;100.00
54022;BME280;39936;51.058;17.220;2023-03-26T22:12:34;100174.93;;;6.79;100.00
54022;BME280;39936;51.058;17.220;2023-03-26T22:16:22;100185.84;;;6.79;100.00
54022;BME280;39936;51.058;17.220;2023-03-26T22:19:59;100183.73;;;6.74;100.00
54022;BME280;39936;51.058;17.220;2023-03-26T22:24:01;100155.08;;;6.49;100.00
54022;BME280;39936;51.058;17.220;2023-03-26T22:29:00;100189.73;;;6.60;100.00
54022;BME280;39936;51.058;17.220;2023-03-26T22:32:50;100181.04;;;6.52;100.00
54022;BME280;39936;51.058;17.220;2023-03-26T22:36:40;100181.55;;;6.47;100.00
54022;BME280;39936;51.058;17.220;2023-03-26T22:40:09;100174.12;;;6.46;100.00
54022;BME280;39936;51.058;17.220;2023-03-26T22:44:08;100155.32;;;6.36;100.00
54022;BME280;39936;51.058;17.220;2023-03-26T22:47:52;100180.91;;;6.48;100.00
54022;BME280;39936;51.058;17.220;2023-03-26T22:51:26;100186.32;;;6.48;100.00
54022;BME280;39936;51.058;17.220;2023-03-26T22:55:18;100188.10;;;6.55;100.00
54022;BME280;39936;51.058;17.220;2023-03-26T22:58:49;100185.45;;;6.47;100.00
54022;BME280;39936;51.058;17.220;2023-03-26T23:03:52;100181.34;;;6.39;100.00
54022;BME280;39936;51.058;17.220;2023-03-26T23:07:30;100178.92;;;6.50;100.00
54022;BME280;39936;51.058;17.220;2023-03-26T23:11:14;100180.98;;;6.56;100.00
54022;BME280;39936;51.058;17.220;2023-03-26T23:14:51;100182.97;;;6.51;100.00
54022;BME280;39936;51.058;17.220;2023-03-26T23:18:52;100184.00;;;6.43;100.00
54022;BME280;39936;51.058;17.220;2023-03-26T23:22:39;100159.17;;;6.20;100.00
54022;BME280;39936;51.058;17.220;2023-03-26T23:26:29;100189.21;;;6.31;100.00
54022;BME280;39936;51.058;17.220;2023-03-26T23:30:14;100193.27;;;6.26;100.00
54022;BME280;39936;51.058;17.220;2023-03-26T23:35:11;100188.69;;;6.21;100.00
54022;BME280;39936;51.058;17.220;2023-03-26T23:38:49;100169.73;;;6.05;100.00
54022;BME280;39936;51.058;17.220;2023-03-26T23:43:02;100169.84;;;6.11;100.00
54022;BME280;39936;51.058;17.220;2023-03-26T23:47:07;100172.23;;;6.22;100.00
54022;BME280;39936;51.058;17.220;2023-03-26T23:50:41;100190.80;;;6.42;100.00
54022;BME280;39936;51.058;17.220;2023-03-26T23:54:17;100194.64;;;6.40;100.00
54022;BME280;39936;51.058;17.220;2023-03-26T23:57:46;100199.52;;;6.44;100.00
